Time;durP1;ratioP1;P1;durP2;ratioP2;P2;SDS_P1;SDS_P2;PMS_P1;PMS_P2;Temp;Humidity;BMP_temperature;BMP_pressure;BME280_temperature;BME280_humidity;BME280_pressure;Samples;Min_cycle;Max_cycle;Signal;HPM_P1;HPM_P2
2022/04/18 00:02:24;;;;;;;10.27;6.18;;;;;;;9.15;58.52;101905.69;5076644;28;20064;-65
2022/04/18 00:04:49;;;;;;;7.65;5.82;;;;;;;9.02;56.75;101893.34;5076620;28;20481;-63
2022/04/18 00:07:15;;;;;;;10.55;5.80;;;;;;;9.08;54.12;101904.72;5076668;28;20488;-63
2022/04/18 00:09:40;;;;;;;9.73;6.10;;;;;;;9.10;53.51;101896.91;5076606;28;20028;-64
2022/04/18 00:12:06;;;;;;;9.05;6.05;;;;;;;9.14;57.24;101897.81;5076953;28;20044;-63
2022/04/18 00:14:31;;;;;;;9.35;5.63;;;;;;;9.09;54.22;101889.94;5076600;28;20039;-63
2022/04/18 00:16:57;;;;;;;8.73;5.53;;;;;;;9.07;53.33;101895.16;5076468;28;20085;-65
2022/04/18 00:19:23;;;;;;;7.10;5.03;;;;;;;9.13;52.20;101888.25;5076415;28;20029;-64
2022/04/18 00:21:49;;;;;;;6.70;5.50;;;;;;;9.05;56.08;101893.38;5076336;28;20047;-63
2022/04/18 00:24:16;;;;;;;6.40;5.30;;;;;;;9.01;55.25;101892.47;5076541;28;20449;-63
2022/04/18 00:26:42;;;;;;;7.30;5.22;;;;;;;8.93;55.88;101893.25;5076436;28;20094;-63
2022/04/18 00:29:07;;;;;;;7.85;5.20;;;;;;;8.84;55.79;101906.19;5076102;28;20041;-64
2022/04/18 00:31:33;;;;;;;7.60;5.20;;;;;;;8.75;58.18;101895.69;5076282;28;20466;-63
2022/04/18 00:33:58;;;;;;;9.07;5.32;;;;;;;8.77;55.18;101901.78;5076282;28;20055;-65
2022/04/18 00:36:23;;;;;;;7.47;5.68;;;;;;;8.75;56.69;101903.50;5076340;28;20124;-64
2022/04/18 00:38:48;;;;;;;5.82;4.80;;;;;;;8.85;56.18;101902.75;5076209;28;20033;-62
2022/04/18 00:41:14;;;;;;;6.40;5.03;;;;;;;8.85;54.19;101907.97;5075773;28;20130;-63
2022/04/18 00:43:47;;;;;;;7.15;5.13;;;;;;;8.78;56.41;101906.16;5075717;28;20125;-63
2022/04/18 00:46:14;;;;;;;8.35;5.15;;;;;;;8.72;57.33;101902.63;5076052;28;20036;-65
2022/04/18 00:48:40;;;;;;;6.05;4.88;;;;;;;8.65;56.24;101894.72;5076425;28;20094;-64
2022/04/18 00:51:07;;;;;;;8.10;5.20;;;;;;;8.57;57.67;101897.22;5075846;28;20036;-63
2022/04/18 00:53:36;;;;;;;7.53;5.10;;;;;;;8.62;56.94;101898.16;5075943;28;20028;-64
2022/04/18 00:56:01;;;;;;;7.72;5.18;;;;;;;8.53;57.63;101892.81;5075668;28;20091;-64
2022/04/18 00:58:27;;;;;;;7.68;4.85;;;;;;;8.51;59.63;101893.66;5075582;28;20451;-64
2022/04/18 01:00:53;;;;;;;5.70;4.75;;;;;;;8.44;58.22;101887.50;5075217;28;20040;-64
2022/04/18 01:03:20;;;;;;;6.38;4.78;;;;;;;8.43;58.40;101892.72;5075462;28;20074;-63
2022/04/18 01:05:46;;;;;;;6.68;4.82;;;;;;;8.36;59.01;101889.13;5075551;28;20480;-62
2022/04/18 01:08:12;;;;;;;7.05;5.00;;;;;;;8.32;59.77;101889.94;5075433;28;20028;-64
2022/04/18 01:10:38;;;;;;;5.85;4.53;;;;;;;8.27;59.60;101884.66;5075745;28;20029;-65
2022/04/18 01:13:03;;;;;;;7.20;5.07;;;;;;;8.23;58.80;101882.88;5075399;28;20021;-64
2022/04/18 01:15:29;;;;;;;5.85;4.80;;;;;;;8.19;60.89;101882.78;5075387;28;20037;-62
2022/04/18 01:17:54;;;;;;;5.68;4.80;;;;;;;8.14;60.82;101887.94;5075404;28;20044;-62
2022/04/18 01:20:19;;;;;;;5.75;4.20;;;;;;;8.09;59.43;101883.53;5075706;28;20032;-64
2022/04/18 01:22:45;;;;;;;5.93;4.40;;;;;;;8.01;61.01;101886.03;5075392;28;20040;-64
2022/04/18 01:30:38;;;;;;;6.72;4.93;;;;;;;7.83;60.77;101881.44;5075040;28;20162;-63
2022/04/18 01:33:04;;;;;;;5.60;4.50;;;;;;;7.80;60.69;101881.38;5074857;28;20087;-63
2022/04/18 01:35:29;;;;;;;6.75;4.65;;;;;;;7.71;61.26;101885.59;5075214;28;20032;-63
2022/04/18 01:37:54;;;;;;;5.65;4.30;;;;;;;7.71;62.56;101878.66;5075096;28;20040;-63
2022/04/18 01:40:20;;;;;;;8.05;4.90;;;;;;;7.73;60.98;101882.16;5075149;28;20040;-63
2022/04/18 01:42:45;;;;;;;7.50;4.20;;;;;;;7.71;59.38;101875.19;5074990;28;20032;-63
2022/04/18 01:45:11;;;;;;;5.60;4.13;;;;;;;7.69;59.93;101878.63;5075357;28;20032;-64
2022/04/18 01:47:36;;;;;;;8.38;4.78;;;;;;;7.62;62.07;101881.13;5074772;28;20436;-62
2022/04/18 01:50:01;;;;;;;6.28;4.60;;;;;;;7.54;61.75;101878.41;5075177;28;20029;-64
2022/04/18 01:52:26;;;;;;;8.95;4.50;;;;;;;7.56;60.42;101887.13;5074838;28;20112;-63
2022/04/18 01:54:52;;;;;;;5.78;4.38;;;;;;;7.48;62.58;101880.03;5074611;28;20052;-62
2022/04/18 01:57:17;;;;;;;6.30;4.60;;;;;;;7.49;60.09;101874.84;5074469;28;20044;-66
2022/04/18 01:59:44;;;;;;;6.38;4.53;;;;;;;7.51;61.56;101875.75;5075048;28;20032;-64
2022/04/18 02:02:09;;;;;;;5.13;4.03;;;;;;;7.39;62.20;101875.56;5074684;28;20074;-65
2022/04/18 02:04:34;;;;;;;7.20;4.57;;;;;;;7.37;61.67;101863.38;5074789;28;20074;-63
2022/04/18 02:07:00;;;;;;;6.25;4.25;;;;;;;7.38;62.18;101868.59;5074929;28;20029;-62
2022/04/18 02:09:25;;;;;;;4.97;4.40;;;;;;;7.35;62.93;101865.94;5074636;28;20090;-65
2022/04/18 02:11:50;;;;;;;6.38;4.60;;;;;;;7.24;63.14;101865.78;5075228;28;20040;-62
2022/04/18 02:14:16;;;;;;;7.97;4.38;;;;;;;7.30;63.47;101860.66;5074928;28;20427;-63
2022/04/18 02:16:41;;;;;;;6.63;4.60;;;;;;;7.23;63.62;101866.63;5055151;28;20112;-65
2022/04/18 02:19:06;;;;;;;5.80;4.20;;;;;;;7.23;63.97;101866.63;5054650;28;20033;-63
2022/04/18 02:21:31;;;;;;;6.07;4.32;;;;;;;7.14;63.23;101856.03;5054651;28;20043;-64
2022/04/18 02:23:56;;;;;;;5.10;3.97;;;;;;;7.19;63.24;101862.22;5054464;28;20029;-64
2022/04/18 02:26:22;;;;;;;5.38;4.15;;;;;;;7.16;64.29;101866.50;5054501;28;20040;-63
2022/04/18 02:28:48;;;;;;;6.13;4.72;;;;;;;7.12;63.50;101854.25;5054646;28;20033;-63
2022/04/18 02:31:13;;;;;;;5.70;4.32;;;;;;;7.12;63.79;101857.75;5054185;28;20028;-65
2022/04/18 02:33:38;;;;;;;6.68;3.92;;;;;;;7.08;62.53;101855.97;5054173;28;20053;-63
2022/04/18 02:36:04;;;;;;;4.95;4.45;;;;;;;7.04;64.97;101859.34;5054609;28;20032;-63
2022/04/18 02:38:29;;;;;;;6.15;3.90;;;;;;;7.05;63.54;101853.31;5054574;28;20029;-64
2022/04/18 02:40:55;;;;;;;5.47;4.43;;;;;;;7.03;65.02;101857.59;5054560;28;20120;-63
2022/04/18 02:43:20;;;;;;;5.88;4.22;;;;;;;6.95;65.45;101853.97;5054395;28;20033;-64
2022/04/18 02:45:45;;;;;;;6.07;4.25;;;;;;;6.98;64.54;101843.63;5054219;28;20033;-64
2022/04/18 02:48:11;;;;;;;6.28;4.10;;;;;;;6.92;65.60;101847.03;5054442;28;20037;-63
2022/04/18 02:50:36;;;;;;;5.50;4.25;;;;;;;6.89;65.16;101838.28;5054405;28;20081;-66
2022/04/18 02:53:02;;;;;;;6.63;4.30;;;;;;;6.81;64.41;101837.25;5054337;28;20091;-62
2022/04/18 02:55:28;;;;;;;6.43;4.25;;;;;;;6.76;64.54;101837.16;5054133;28;20340;-63
2022/04/18 02:57:53;;;;;;;5.70;4.10;;;;;;;6.74;65.36;101838.00;5054273;28;20033;-62
2022/04/18 03:00:19;;;;;;;6.75;3.80;;;;;;;6.71;65.78;101830.16;5054015;28;20032;-64
2022/04/18 03:02:44;;;;;;;5.53;3.75;;;;;;;6.71;63.52;101827.53;5054302;28;20033;-63
2022/04/18 03:05:11;;;;;;;6.45;4.50;;;;;;;6.66;65.19;101824.84;5056254;28;20025;-63
2022/04/18 03:07:36;;;;;;;5.90;4.18;;;;;;;6.62;65.17;101820.44;5057910;28;20060;-63
2022/04/18 03:10:03;;;;;;;6.85;3.97;;;;;;;6.64;66.50;101824.81;5057621;28;20043;-63
2022/04/18 03:12:28;;;;;;;7.93;3.75;;;;;;;6.56;66.70;101815.16;5057726;28;20041;-63
2022/04/18 03:14:54;;;;;;;6.05;4.30;;;;;;;6.55;66.60;101813.38;5057828;28;20094;-63
2022/04/18 03:17:19;;;;;;;6.13;4.45;;;;;;;6.51;65.35;101821.97;5057464;28;20104;-63
2022/04/18 03:19:45;;;;;;;6.47;4.22;;;;;;;6.51;66.56;101822.84;5057848;28;20033;-65
2022/04/18 03:22:10;;;;;;;5.85;4.38;;;;;;;6.50;65.48;101817.63;5057523;28;20437;-63
2022/04/18 03:24:35;;;;;;;7.07;5.03;;;;;;;6.43;66.77;101821.81;5056787;28;20035;-62
2022/04/18 03:27:02;;;;;;;7.78;4.80;;;;;;;6.45;65.60;101814.03;5057597;28;20321;-63
2022/04/18 03:29:27;;;;;;;8.45;5.25;;;;;;;6.37;66.81;101829.50;5057452;28;20056;-63
2022/04/18 03:31:54;;;;;;;9.70;5.63;;;;;;;6.26;67.30;101824.09;5057222;28;20452;-64
2022/04/18 03:34:19;;;;;;;9.32;5.70;;;;;;;6.26;66.99;101825.81;5057476;28;20039;-62
2022/04/18 03:42:12;;;;;;;7.40;5.28;;;;;;;6.21;65.94;101820.53;5057291;28;20044;-62
2022/04/18 03:44:47;;;;;;;9.05;5.80;;;;;;;6.27;66.88;101832.75;5057640;28;20029;-63
2022/04/18 03:47:14;;;;;;;7.65;5.68;;;;;;;6.25;68.33;101829.25;5057028;28;20056;-64
2022/04/18 03:49:40;;;;;;;7.72;5.60;;;;;;;6.18;67.06;101827.38;5057181;28;20087;-63
2022/04/18 03:52:06;;;;;;;8.27;5.43;;;;;;;6.16;68.39;101818.69;5056654;28;20791;-63
2022/04/18 03:54:33;;;;;;;7.30;5.43;;;;;;;6.14;68.64;101829.03;5056867;28;20091;-62
2022/04/18 03:56:58;;;;;;;6.43;5.20;;;;;;;6.12;68.22;101828.13;5055605;28;20139;-64
2022/04/18 03:59:23;;;;;;;8.05;5.40;;;;;;;6.13;66.96;101819.50;5056835;28;20029;-63
2022/04/18 04:01:48;;;;;;;9.35;5.13;;;;;;;6.07;67.21;101818.47;5056899;28;20036;-63
2022/04/18 04:04:14;;;;;;;7.97;4.88;;;;;;;6.05;68.99;101823.69;5056930;28;20117;-63
2022/04/18 04:06:39;;;;;;;8.82;5.05;;;;;;;6.00;69.24;101827.00;5057122;28;20143;-63
2022/04/18 04:09:04;;;;;;;6.38;4.68;;;;;;;5.91;69.22;101825.09;5056777;28;20029;-62
2022/04/18 04:11:29;;;;;;;7.25;4.88;;;;;;;5.89;68.40;101818.97;5056690;28;20475;-63
2022/04/18 04:13:55;;;;;;;5.68;4.50;;;;;;;5.98;66.94;101818.31;5056655;28;20037;-63
2022/04/18 04:16:20;;;;;;;7.82;4.70;;;;;;;5.90;68.23;101819.00;5056158;28;20438;-63
2022/04/18 04:18:46;;;;;;;7.80;4.70;;;;;;;5.95;68.05;101821.72;5055950;28;20037;-63
2022/04/18 04:21:11;;;;;;;5.35;4.38;;;;;;;5.90;69.14;101810.34;5056329;28;20043;-62
2022/04/18 04:23:36;;;;;;;6.53;4.75;;;;;;;5.85;69.01;101805.03;5056280;28;20416;-62
2022/04/18 04:26:02;;;;;;;9.85;4.63;;;;;;;5.72;69.20;101812.50;5056399;28;20056;-64
2022/04/18 04:28:27;;;;;;;7.05;4.35;;;;;;;5.74;68.81;101813.41;5056576;28;20087;-65
2022/04/18 04:30:52;;;;;;;6.32;4.35;;;;;;;5.74;69.13;101819.50;5056650;28;20029;-63
2022/04/18 04:33:17;;;;;;;5.95;4.43;;;;;;;5.72;69.83;101812.50;5056502;28;20045;-63
2022/04/18 04:35:43;;;;;;;7.15;4.78;;;;;;;5.70;70.34;101816.81;5056068;28;20040;-63
2022/04/18 04:38:08;;;;;;;4.85;4.30;;;;;;;5.71;69.25;101816.84;5055553;28;20039;-63
2022/04/18 04:40:33;;;;;;;4.90;4.25;;;;;;;5.69;70.36;101817.66;5056192;28;20448;-63
2022/04/18 04:42:58;;;;;;;5.60;4.55;;;;;;;5.65;70.42;101824.50;5055941;28;20049;-63
2022/04/18 04:45:24;;;;;;;5.55;4.35;;;;;;;5.64;69.76;101820.16;5056511;28;20048;-63
2022/04/18 04:47:49;;;;;;;5.55;4.38;;;;;;;5.66;70.95;101827.97;5055742;28;20411;-63
2022/04/18 04:50:15;;;;;;;5.20;3.92;;;;;;;5.68;71.38;101821.97;5056009;28;20033;-62
2022/04/18 04:52:40;;;;;;;5.00;4.20;;;;;;;5.71;71.49;101822.03;5055378;28;20040;-63
2022/04/18 04:55:07;;;;;;;6.57;4.60;;;;;;;5.64;70.97;101816.66;5055993;28;20102;-63
2022/04/18 04:57:33;;;;;;;6.22;4.18;;;;;;;5.67;71.02;101830.59;5055404;28;20043;-64
2022/04/18 04:59:59;;;;;;;8.57;4.72;;;;;;;5.65;70.51;101821.91;5055736;28;20115;-62
2022/04/18 05:02:24;;;;;;;5.75;4.25;;;;;;;5.69;70.22;101820.25;5055714;28;20048;-63
2022/04/18 05:04:50;;;;;;;5.53;4.28;;;;;;;5.72;70.44;101828.97;5054749;28;20051;-63
2022/04/18 05:07:15;;;;;;;6.65;4.40;;;;;;;5.73;69.63;101829.84;5054864;28;20033;-63
2022/04/18 05:09:40;;;;;;;5.80;4.00;;;;;;;5.71;70.08;101832.44;5055491;28;20029;-63
2022/04/18 05:12:07;;;;;;;5.22;4.07;;;;;;;5.67;67.81;101834.91;5055423;28;20097;-63
2022/04/18 05:14:33;;;;;;;5.03;4.10;;;;;;;5.73;69.05;101825.53;5055452;28;20043;-62
2022/04/18 05:16:58;;;;;;;6.45;4.07;;;;;;;5.73;69.51;101824.66;5055413;28;20029;-62
2022/04/18 05:19:23;;;;;;;5.43;4.35;;;;;;;5.78;69.48;101828.22;5055508;28;20040;-64
2022/04/18 05:21:48;;;;;;;6.43;4.25;;;;;;;5.84;70.13;101820.59;5055361;28;20134;-63
2022/04/18 05:24:14;;;;;;;7.18;4.30;;;;;;;5.90;68.13;101832.00;5055281;28;20051;-64
2022/04/18 05:26:39;;;;;;;7.80;4.32;;;;;;;5.89;68.34;101825.03;5054759;28;20037;-63
2022/04/18 05:29:04;;;;;;;6.45;4.40;;;;;;;6.01;68.57;101831.38;5054394;28;20029;-63
2022/04/18 05:31:30;;;;;;;6.53;4.00;;;;;;;6.08;68.46;101828.03;5055216;28;20356;-63
2022/04/18 05:33:55;;;;;;;7.15;4.53;;;;;;;6.20;68.20;101836.09;5054644;28;20158;-63
2022/04/18 05:36:21;;;;;;;6.30;4.47;;;;;;;6.98;66.64;101834.09;5055123;28;20056;-63
2022/04/18 05:38:46;;;;;;;5.55;3.85;;;;;;;8.36;61.96;101826.53;5054941;28;20129;-63
2022/04/18 05:41:12;;;;;;;7.40;4.57;;;;;;;9.78;57.37;101820.78;5054872;28;20029;-63
2022/04/18 05:43:37;;;;;;;5.63;4.03;;;;;;;10.86;54.41;101812.47;5056430;28;20029;-63
2022/04/18 05:46:02;;;;;;;7.82;4.35;;;;;;;10.88;50.75;101811.59;5063434;28;20391;-62
2022/04/18 05:48:28;;;;;;;6.38;3.83;;;;;;;10.94;49.87;101811.56;5065103;28;20112;-63
2022/04/18 05:50:53;;;;;;;6.38;3.97;;;;;;;11.05;49.25;101815.09;5064109;28;20074;-63
2022/04/18 05:53:24;;;;;;;5.75;3.72;;;;;;;11.41;47.88;101819.44;5055765;28;20130;-62
2022/04/18 05:55:49;;;;;;;6.72;3.75;;;;;;;11.87;45.89;101816.75;5065008;28;20029;-63
2022/04/18 05:58:14;;;;;;;6.47;3.60;;;;;;;11.71;44.96;101818.50;5060218;28;20094;-64
2022/04/18 06:00:40;;;;;;;5.30;3.70;;;;;;;11.23;45.61;101819.47;5063659;28;20025;-63
2022/04/18 06:03:05;;;;;;;6.05;3.90;;;;;;;10.80;45.96;101827.28;5061294;28;20436;-62
2022/04/18 06:05:30;;;;;;;5.38;3.97;;;;;;;10.66;46.85;101822.91;5054285;28;20043;-62
2022/04/18 06:07:56;;;;;;;4.10;3.70;;;;;;;10.99;46.34;101820.31;5064686;28;20044;-62
2022/04/18 06:10:21;;;;;;;4.65;3.60;;;;;;;11.82;44.38;101815.88;5063072;28;20440;-62
2022/04/18 06:12:47;;;;;;;4.68;3.50;;;;;;;12.18;43.06;101823.59;5064664;28;20057;-62
2022/04/18 06:15:12;;;;;;;4.70;3.47;;;;;;;12.16;43.18;101820.13;5065613;28;20115;-62
2022/04/18 06:17:37;;;;;;;4.90;3.58;;;;;;;12.33;43.13;101817.41;5070753;28;20145;-64
2022/04/18 06:20:03;;;;;;;4.75;3.08;;;;;;;12.09;43.47;101831.53;5068627;28;20428;-63
2022/04/18 06:22:29;;;;;;;5.60;3.58;;;;;;;11.88;45.23;101830.72;5057682;28;20037;-63
2022/04/18 06:24:54;;;;;;;6.50;3.47;;;;;;;12.08;44.07;101834.16;5054448;28;20047;-61
2022/04/18 06:27:19;;;;;;;7.00;3.17;;;;;;;12.13;42.59;101830.63;5054601;28;20349;-62
2022/04/18 06:29:45;;;;;;;5.85;3.25;;;;;;;11.87;42.83;101824.59;5054772;28;20041;-62
2022/04/18 06:32:10;;;;;;;5.30;3.45;;;;;;;11.56;43.27;101825.53;5054370;28;20113;-60
2022/04/18 06:34:35;;;;;;;3.83;2.92;;;;;;;11.35;42.71;101824.69;5054530;28;20104;-63
2022/04/18 06:37:00;;;;;;;3.70;3.10;;;;;;;11.30;42.90;101828.16;5054202;28;20417;-62
2022/04/18 06:39:26;;;;;;;4.90;3.05;;;;;;;11.63;42.93;101829.88;5054853;28;20041;-63
2022/04/18 06:41:51;;;;;;;4.72;3.30;;;;;;;11.54;41.92;101827.28;5058154;28;20037;-61
2022/04/18 06:44:16;;;;;;;4.05;3.05;;;;;;;11.30;41.99;101818.56;5058401;28;20130;-62
2022/04/18 06:46:41;;;;;;;5.82;3.00;;;;;;;11.24;42.37;101829.06;5058355;28;20037;-61
2022/04/18 06:49:07;;;;;;;3.92;3.10;;;;;;;11.45;41.76;101820.28;5057845;28;20444;-62
2022/04/18 06:51:32;;;;;;;4.18;3.42;;;;;;;12.02;40.97;101818.44;5058161;28;20051;-61
2022/04/18 06:53:57;;;;;;;5.70;3.00;;;;;;;12.31;41.43;101819.16;5058427;28;20033;-62
2022/04/18 06:59:06;;;;;;;4.47;3.13;;;;;;;11.95;40.67;101827.22;5058424;28;20371;-62
2022/04/18 07:01:32;;;;;;;4.47;3.03;;;;;;;11.83;41.32;101830.72;5057939;28;20120;-63
2022/04/18 07:03:57;;;;;;;3.42;2.67;;;;;;;11.89;42.11;101832.47;5057764;28;20410;-62
2022/04/18 07:06:23;;;;;;;5.07;3.47;;;;;;;12.10;41.28;101830.66;5057975;28;20044;-62
2022/04/18 07:08:48;;;;;;;5.43;3.35;;;;;;;12.33;40.19;101813.91;5065272;28;20075;-62
2022/04/18 07:11:13;;;;;;;4.85;3.00;;;;;;;12.86;39.77;101817.09;5073277;28;20032;-61
2022/04/18 07:13:39;;;;;;;4.40;3.05;;;;;;;13.09;39.50;101813.41;5067512;28;20047;-61
2022/04/18 07:16:06;;;;;;;5.93;2.83;;;;;;;13.09;38.65;101811.66;5066358;28;20094;-62
2022/04/18 07:18:32;;;;;;;3.10;2.60;;;;;;;13.02;38.82;101811.72;5060156;28;20028;-61
2022/04/18 07:20:57;;;;;;;4.43;2.80;;;;;;;12.86;38.86;101816.22;5057629;28;20348;-62
2022/04/18 07:23:23;;;;;;;3.88;2.80;;;;;;;12.83;38.92;101819.72;5057656;28;20029;-63
2022/04/18 07:25:48;;;;;;;3.88;2.65;;;;;;;12.78;39.43;101807.53;5057573;28;20037;-62
2022/04/18 07:28:13;;;;;;;4.00;2.97;;;;;;;12.91;39.62;101814.44;5057391;28;20511;-64
2022/04/18 07:30:38;;;;;;;3.88;2.45;;;;;;;12.89;39.00;101810.94;5057425;28;20098;-62
2022/04/18 07:33:04;;;;;;;4.22;2.45;;;;;;;12.86;39.71;101805.72;5057547;28;20045;-61
2022/04/18 07:35:29;;;;;;;2.78;2.30;;;;;;;12.88;37.69;101802.19;5061211;28;20363;-61
2022/04/18 07:40:38;;;;;;;5.10;2.78;;;;;;;12.97;38.84;101800.38;5064700;28;20075;-61
2022/04/18 07:43:04;;;;;;;3.42;2.47;;;;;;;12.99;38.04;101794.22;5071528;28;20056;-62
2022/04/18 07:45:29;;;;;;;3.97;2.53;;;;;;;12.97;37.85;101788.13;5066494;28;20032;-61
2022/04/18 07:47:54;;;;;;;3.97;2.53;;;;;;;13.07;37.77;101795.03;5064316;28;20025;-62
2022/04/18 07:50:19;;;;;;;3.10;2.20;;;;;;;13.10;37.28;101796.78;5074673;28;20340;-62
2022/04/18 07:52:45;;;;;;;5.35;2.42;;;;;;;13.19;37.26;101800.22;5074468;28;20654;-61
2022/04/18 07:55:10;;;;;;;5.47;2.65;;;;;;;13.15;37.11;101771.38;5075268;28;20032;-62
2022/04/18 07:57:37;;;;;;;4.63;2.65;;;;;;;13.32;37.62;101795.72;5067152;28;20126;-62
2022/04/18 08:00:05;;;;;;;4.10;2.90;;;;;;;13.38;37.36;101789.53;5060760;28;20036;-63
2022/04/18 08:02:30;;;;;;;6.57;3.22;;;;;;;13.42;37.54;101796.50;5056534;28;20124;-62
2022/04/18 08:04:55;;;;;;;3.67;3.05;;;;;;;13.47;37.31;101792.06;5055996;28;20028;-62
2022/04/18 08:07:20;;;;;;;3.85;2.85;;;;;;;13.52;37.25;101787.63;5056647;28;20029;-63
2022/04/18 08:09:46;;;;;;;4.18;2.90;;;;;;;13.61;37.27;101791.94;5056489;28;20025;-62
2022/04/18 08:12:12;;;;;;;5.28;3.20;;;;;;;13.69;36.84;101790.06;5074474;28;20355;-63
2022/04/18 08:14:37;;;;;;;5.18;3.47;;;;;;;13.70;36.76;101789.19;5076461;28;20029;-62
2022/04/18 08:17:03;;;;;;;4.70;2.80;;;;;;;13.80;37.02;101788.22;5076466;28;20024;-62
2022/04/18 08:19:28;;;;;;;5.35;2.97;;;;;;;13.90;36.58;101787.19;5056886;28;20048;-62
2022/04/18 08:21:54;;;;;;;4.28;2.47;;;;;;;13.99;36.97;101791.50;5056284;28;20028;-61
2022/04/18 08:24:20;;;;;;;3.17;2.50;;;;;;;14.04;34.85;101790.53;5063393;28;20119;-62
2022/04/18 08:26:47;;;;;;;3.00;2.00;;;;;;;14.21;34.24;101791.19;5076057;28;20036;-62
2022/04/18 08:29:12;;;;;;;3.15;2.30;;;;;;;14.36;34.69;101795.41;5076242;28;20385;-62
2022/04/18 08:31:37;;;;;;;5.78;2.38;;;;;;;14.55;34.85;101794.25;5074930;28;20124;-63
2022/04/18 08:34:03;;;;;;;6.35;2.30;;;;;;;14.51;34.18;101770.63;5063892;28;20090;-62
2022/04/18 08:36:28;;;;;;;3.72;2.22;;;;;;;14.64;34.47;101795.88;5062474;28;20040;-62
2022/04/18 08:38:54;;;;;;;4.22;2.40;;;;;;;14.66;34.28;101780.06;5058223;28;20132;-62
2022/04/18 08:41:22;;;;;;;3.58;2.30;;;;;;;14.73;34.44;101790.47;5071359;28;20354;-63
2022/04/18 08:43:49;;;;;;;4.28;2.30;;;;;;;14.91;35.04;101789.31;5065753;28;20032;-63
2022/04/18 08:46:15;;;;;;;3.17;2.30;;;;;;;15.08;33.70;101789.91;5071796;28;20056;-63
2022/04/18 08:54:12;;;;;;;3.08;2.40;;;;;;;16.12;32.63;101785.31;5076023;28;20040;-63
2022/04/18 08:56:38;;;;;;;3.90;2.10;;;;;;;16.75;31.18;101772.47;5076112;28;20323;-63
2022/04/18 08:59:03;;;;;;;7.53;2.55;;;;;;;17.48;30.61;101773.22;5076071;28;20032;-64
2022/04/18 09:01:28;;;;;;;3.30;2.33;;;;;;;18.03;29.11;101779.63;5075586;28;20039;-64
2022/04/18 09:03:54;;;;;;;3.15;2.17;;;;;;;18.36;29.61;101770.66;5071372;28;20246;-64
2022/04/18 09:06:24;;;;;;;2.78;2.15;;;;;;;18.00;29.34;101777.09;5056465;28;20154;-63
2022/04/18 09:08:55;;;;;;;3.92;2.20;;;;;;;17.87;29.63;101783.63;5064123;28;20348;-64
2022/04/18 09:11:28;;;;;;;3.03;2.30;;;;;;;17.53;30.21;101778.38;5055799;28;20037;-63
2022/04/18 09:14:09;;;;;;;5.68;2.88;;;;;;;17.17;31.14;101772.28;5055190;28;20106;-63
2022/04/18 09:16:36;;;;;;;4.10;2.30;;;;;;;17.12;29.88;101771.56;5055537;28;20079;-63
2022/04/18 09:19:09;;;;;;;3.28;2.10;;;;;;;17.00;30.59;101783.28;5055635;28;20039;-62
2022/04/18 09:21:55;;;;;;;3.92;2.70;;;;;;;16.91;30.77;101784.41;5055178;28;20033;-62
2022/04/18 09:24:34;;;;;;;3.72;2.40;;;;;;;16.89;31.47;101777.41;5055128;28;20037;-63
2022/04/18 09:27:06;;;;;;;3.10;2.45;;;;;;;16.77;30.83;101778.59;5055280;28;20039;-63
2022/04/18 09:29:33;;;;;;;5.30;2.85;;;;;;;16.84;30.54;101780.16;5055254;28;20037;-63
2022/04/18 09:31:59;;;;;;;5.85;2.92;;;;;;;16.83;30.21;101777.53;5054924;28;20033;-62
2022/04/18 09:34:24;;;;;;;6.25;3.28;;;;;;;16.82;30.38;101771.38;5054828;28;20108;-63
2022/04/18 09:37:11;;;;;;;4.55;2.85;;;;;;;16.88;31.42;101768.59;5054764;28;20036;-63
2022/04/18 09:39:37;;;;;;;4.00;2.70;;;;;;;17.00;31.57;101775.34;5055099;28;20028;-62
2022/04/18 09:42:10;;;;;;;3.65;2.70;;;;;;;17.07;31.26;101771.66;5054956;28;20438;-63
2022/04/18 09:44:39;;;;;;;4.90;2.65;;;;;;;17.13;30.78;101774.16;5055276;28;20029;-63
2022/04/18 09:47:04;;;;;;;3.63;2.63;;;;;;;17.22;30.74;101763.31;5055234;28;20058;-63
2022/04/18 09:49:37;;;;;;;4.07;2.90;;;;;;;17.39;31.87;101754.94;5055313;28;20344;-62
2022/04/18 09:52:06;;;;;;;3.80;2.60;;;;;;;17.45;29.77;101762.72;5054902;28;20033;-62
2022/04/18 09:54:32;;;;;;;5.50;2.90;;;;;;;17.41;29.90;101742.53;5055048;28;20021;-63
2022/04/18 09:57:03;;;;;;;3.38;2.70;;;;;;;17.61;31.02;101753.44;5054631;28;20112;-63
2022/04/18 09:59:30;;;;;;;4.23;2.83;;;;;;;17.87;31.90;101742.13;5054207;28;20450;-64
2022/04/18 10:01:57;;;;;;;3.63;2.53;;;;;;;17.97;29.07;101743.63;5054321;28;20348;-64
2022/04/18 10:04:24;;;;;;;5.00;2.67;;;;;;;18.12;30.66;101744.94;5054592;28;20033;-62
2022/04/18 10:06:52;;;;;;;5.22;2.70;;;;;;;18.19;29.74;101743.81;5054771;28;20086;-62
2022/04/18 10:09:18;;;;;;;4.45;3.05;;;;;;;18.14;28.15;101745.75;5053311;28;20033;-63
2022/04/18 10:11:44;;;;;;;6.03;2.63;;;;;;;18.31;29.87;101738.16;5054740;28;20033;-62
2022/04/18 10:14:10;;;;;;;4.05;3.05;;;;;;;18.30;28.85;101740.84;5055190;28;20091;-63
2022/04/18 10:16:35;;;;;;;3.58;2.90;;;;;;;18.31;28.99;101722.25;5058703;28;20045;-62
2022/04/18 10:19:12;;;;;;;4.18;2.60;;;;;;;18.49;29.21;101733.19;5058804;28;20032;-63
2022/04/18 10:21:44;;;;;;;6.82;3.17;;;;;;;18.47;28.35;101727.06;5058945;28;20044;-62
2022/04/18 10:24:31;;;;;;;3.92;3.30;;;;;;;18.46;29.09;101731.50;5058350;28;20509;-63
2022/04/18 10:27:05;;;;;;;4.47;2.97;;;;;;;18.48;28.56;101727.03;5058233;28;20033;-63
2022/04/18 10:29:36;;;;;;;5.03;3.10;;;;;;;18.51;27.67;101726.94;5058678;28;20029;-63
2022/04/18 10:32:04;;;;;;;4.57;3.25;;;;;;;18.72;28.33;101712.97;5057897;28;20048;-64
2022/04/18 10:34:32;;;;;;;4.75;3.05;;;;;;;18.75;27.03;101730.56;5058636;28;20035;-63
2022/04/18 10:37:01;;;;;;;6.70;3.60;;;;;;;18.69;27.02;101715.75;5058657;28;20111;-64
2022/04/18 10:39:35;;;;;;;5.85;3.22;;;;;;;18.76;28.26;101714.63;5057539;28;20044;-65
2022/04/18 10:42:21;;;;;;;5.07;3.20;;;;;;;18.72;27.67;101712.97;5058234;28;20424;-65
2022/04/18 10:45:06;;;;;;;4.07;2.83;;;;;;;18.71;27.24;101713.91;5058491;28;20039;-64
2022/04/18 10:47:59;;;;;;;6.15;3.45;;;;;;;18.76;26.58;101716.41;5058246;28;20028;-64
2022/04/18 10:50:27;;;;;;;4.55;3.00;;;;;;;18.68;25.97;101716.69;5057830;28;20020;-65
2022/04/18 10:53:13;;;;;;;5.05;3.08;;;;;;;18.91;27.91;101707.91;5061858;28;20037;-64
2022/04/18 10:56:01;;;;;;;4.20;3.00;;;;;;;18.87;25.37;101706.31;5058232;28;20025;-64
2022/04/18 10:58:30;;;;;;;4.15;3.00;;;;;;;18.85;25.88;101707.28;5058421;28;20039;-64
2022/04/18 11:01:01;;;;;;;6.65;3.10;;;;;;;18.87;25.13;101711.63;5057654;28;20329;-64
2022/04/18 11:03:46;;;;;;;5.75;3.17;;;;;;;18.84;26.51;101700.25;5056394;28;20347;-63
2022/04/18 11:06:17;;;;;;;6.05;2.80;;;;;;;19.16;27.22;101709.75;5058036;28;20112;-62
2022/04/18 11:08:58;;;;;;;3.67;2.73;;;;;;;19.41;26.53;101687.56;5058092;28;20043;-64
2022/04/18 11:11:23;;;;;;;5.40;3.10;;;;;;;19.43;25.80;101696.34;5057622;28;20279;-63
2022/04/18 11:13:50;;;;;;;4.25;2.80;;;;;;;19.48;25.63;101688.22;5060048;28;20463;-64
2022/04/18 11:16:24;;;;;;;4.28;3.00;;;;;;;19.65;26.51;101690.28;5070432;28;20145;-62
2022/04/18 11:19:08;;;;;;;4.57;3.17;;;;;;;19.76;26.34;101678.31;5067036;28;20500;-65
2022/04/18 11:21:55;;;;;;;3.53;3.10;;;;;;;19.76;26.31;101688.06;5067257;28;20108;-62
2022/04/18 11:24:40;;;;;;;4.22;2.97;;;;;;;19.62;26.52;101685.94;5067388;28;20119;-63
2022/04/18 11:27:08;;;;;;;6.65;3.28;;;;;;;19.55;29.53;101680.94;5066499;28;20075;-63
2022/04/18 11:29:33;;;;;;;4.30;3.30;;;;;;;19.47;28.87;101682.03;5071680;28;20028;-57
2022/04/18 11:32:00;;;;;;;7.18;3.40;;;;;;;19.27;26.55;101692.50;5077310;28;20458;-64
2022/04/18 11:34:27;;;;;;;3.70;3.33;;;;;;;19.11;28.33;101667.44;5077509;28;20040;-62
2022/04/18 11:36:55;;;;;;;4.60;3.50;;;;;;;19.37;28.76;101674.47;5077273;28;20051;-63
2022/04/18 11:39:20;;;;;;;4.95;3.22;;;;;;;19.37;29.73;101674.47;5077358;28;20028;-63
2022/04/18 11:41:46;;;;;;;4.90;3.33;;;;;;;19.33;28.39;101680.81;5077340;28;20102;-64
2022/04/18 11:44:12;;;;;;;4.43;3.45;;;;;;;19.36;28.23;101670.09;5077141;28;20431;-64
2022/04/18 11:46:38;;;;;;;4.38;3.40;;;;;;;19.34;26.82;101671.94;5076329;28;20036;-63
2022/04/18 11:49:03;;;;;;;6.47;3.22;;;;;;;19.38;27.33;101668.25;5077199;28;20036;-64
2022/04/18 11:51:42;;;;;;;4.50;3.40;;;;;;;19.43;28.24;101674.22;5076827;28;20032;-64